Habib Express — 5IM379 — position and weather

sailwx.info

Track history (hours):
 
Tides and Currents Weather Stations Pressure Air Temp Water Temp Dewpoint Dewpoint Depression Visibility Wind Speed Wind Dir Waves Ship Positions

Habib Express

Last reported at 2017-Oct-15 14:47 UTC. Time now 2017-Oct-19 13:04 UTC.
Position N 25°21' W 079°51'.

Length 90 m; draft 4.5 m.

Type: Cargo ship. MMSI: 677027900.

Date/timePositionNaut miles runAvg speedWind from/ knotsBaromVisibWave heightAir tempDewpointWater temp
2017-Oct-15 14:47N 25°21' W 079°51'6 7.8
2017-Oct-15 13:59N 25°27' W 079°54'4 7.7
2017-Oct-15 13:30N 25°30' W 079°56'4 8.1
2017-Oct-15 13:00N 25°34' W 079°58'4 8.3
2017-Oct-15 12:30N 25°38' W 079°60'4 8.6
2017-Oct-15 12:00N 25°41' W 080°02'510.6
2017-Oct-15 11:30N 25°46' W 080°05'4 8.3
2017-Oct-15 11:00N 25°46' W 080°09'2 3.2
2017-Oct-15 10:30N 25°46' W 080°11'1 2.3
2017-Oct-15 09:59N 25°47' W 080°12'1 2.6
2017-Oct-15 09:29N 25°47' W 080°14'1 2.3
2017-Oct-15 08:59N 25°48' W 080°15'0 0.0
2017-Oct-15 08:29N 25°48' W 080°15'0 0.0
2017-Oct-15 07:59N 25°48' W 080°15'0 0.0
2017-Oct-15 07:29N 25°48' W 080°15'0 0.0
2017-Oct-15 06:59N 25°48' W 080°15'0 0.0
2017-Oct-15 06:26N 25°48' W 080°15'0 0.0
2017-Oct-15 05:59N 25°48' W 080°15'0 0.0
2017-Oct-15 05:29N 25°48' W 080°15'0 0.0
2017-Oct-15 04:53N 25°48' W 080°15'0 0.0
2017-Oct-15 04:23N 25°48' W 080°15'0 0.0
2017-Oct-15 03:59N 25°48' W 080°15'0 0.0
2017-Oct-15 03:26N 25°48' W 080°15'0 0.0
2017-Oct-15 02:47N 25°48' W 080°15'0 0.0
2017-Oct-15 02:20N 25°48' W 080°15'0 0.0
2017-Oct-14 18:18N 25°48' W 080°15'0 0.7
2017-Oct-14 17:59N 25°48' W 080°15'1 2.6
2017-Oct-14 17:30N 25°47' W 080°13'1 2.9
2017-Oct-14 17:00N 25°46' W 080°12'1 2.7
2017-Oct-14 16:30N 25°46' W 080°10'4 7.7
2017-Oct-14 16:00N 25°46' W 080°06'3 5.5
2017-Oct-14 15:30N 25°48' W 080°05'0 0.4
2017-Oct-14 15:00N 25°48' W 080°05'1 2.2
2017-Oct-14 14:30N 25°47' W 080°05'1 2.6
2017-Oct-14 14:00N 25°45' W 080°05'1 1.4
2017-Oct-14 13:30N 25°45' W 080°04'1 1.3
2017-Oct-14 13:00N 25°44' W 080°04'1 1.5
2017-Oct-14 12:30N 25°44' W 080°03'1 1.8
2017-Oct-14 12:00N 25°43' W 080°03'1 2.2
2017-Oct-14 11:30N 25°42' W 080°02'2 4.2
2017-Oct-14 11:00N 25°40' W 080°02'5 9.3
2017-Oct-14 10:30N 25°36' W 080°00'5 9.4
2017-Oct-14 10:00N 25°31' W 079°58'510.8
2017-Oct-14 09:30N 25°26' W 079°56'  
2017-Oct-08 23:28N 24°51' W 079°34'510.2
2017-Oct-08 23:00N 24°56' W 079°36'28 9.5
2017-Oct-08 20:07N 25°20' W 079°50'2 9.2
2017-Oct-08 19:51N 25°22' W 079°52'3 9.3
2017-Oct-08 19:30N 25°25' W 079°53'5 9.5
2017-Oct-08 19:00N 25°29' W 079°55'5 9.7
2017-Oct-08 18:30N 25°34' W 079°58'5 9.5
2017-Oct-08 17:59N 25°38' W 080°00'5 9.5
2017-Oct-08 17:30N 25°42' W 080°02'5 8.6
2017-Oct-08 16:57N 25°46' W 080°06'4 9.3
2017-Oct-08 16:30N 25°46' W 080°10'1 2.8
2017-Oct-08 16:00N 25°46' W 080°12'1 2.7
2017-Oct-08 15:30N 25°47' W 080°13'1 2.8
2017-Oct-08 15:01N 25°48' W 080°14'1 1.0
2017-Oct-08 14:29N 25°48' W 080°15'0 0.0
2017-Oct-08 13:59N 25°48' W 080°15'0 0.0
2017-Oct-08 13:25N 25°48' W 080°15'0 0.0
2017-Oct-08 12:55N 25°48' W 080°15'0 0.0
2017-Oct-08 12:25N 25°48' W 080°15'0 0.0
2017-Oct-08 11:55N 25°48' W 080°15'0 0.0
2017-Oct-08 11:25N 25°48' W 080°15'0 0.0
2017-Oct-08 10:55N 25°48' W 080°15'0 0.0
2017-Oct-08 10:25N 25°48' W 080°15'0 0.0
2017-Oct-08 09:58N 25°48' W 080°15'0 0.0
2017-Oct-08 09:25N 25°48' W 080°15'0 0.0
2017-Oct-08 08:55N 25°48' W 080°15'0 0.0
2017-Oct-08 08:28N 25°48' W 080°15'0 0.0
2017-Oct-08 07:59N 25°48' W 080°15'0 0.0
2017-Oct-08 07:31N 25°48' W 080°15'0 0.0
2017-Oct-08 07:00N 25°48' W 080°15'0 0.0
2017-Oct-08 06:30N 25°48' W 080°15'0 0.0
2017-Oct-08 06:01N 25°48' W 080°15'0 0.0
2017-Oct-08 05:30N 25°48' W 080°15'0 0.0
2017-Oct-08 05:01N 25°48' W 080°15'0 0.0
2017-Oct-08 04:31N 25°48' W 080°15'0 0.0
2017-Oct-08 03:59N 25°48' W 080°15'0 0.0
2017-Oct-08 03:30N 25°48' W 080°15'0 0.0
2017-Oct-08 02:59N 25°48' W 080°15'0 0.0
2017-Oct-08 02:30N 25°48' W 080°15'0 0.0
2017-Oct-08 01:59N 25°48' W 080°15'0 0.0
2017-Oct-08 01:30N 25°48' W 080°15'0 0.0
2017-Oct-08 00:58N 25°48' W 080°15'0 0.0
2017-Oct-08 00:27N 25°48' W 080°15'1 2.1
2017-Oct-07 23:58N 25°47' W 080°14'1 2.9
2017-Oct-07 23:29N 25°47' W 080°12'1 2.3
2017-Oct-07 23:00N 25°46' W 080°11'2 3.7
2017-Oct-07 22:30N 25°46' W 080°09'4 8.3
2017-Oct-07 22:01N 25°48' W 080°05'1 1.3
2017-Oct-07 21:31N 25°48' W 080°04'1 2.7
2017-Oct-07 20:58N 25°47' W 080°04'1 2.1
2017-Oct-07 20:28N 25°45' W 080°04'1 1.9
2017-Oct-07 19:58N 25°45' W 080°04'1 1.8
2017-Oct-07 19:28N 25°44' W 080°04'2 3.3
2017-Oct-07 19:00N 25°42' W 080°03'3 6.7
2017-Oct-07 18:30N 25°39' W 080°01'4 8.4
2017-Oct-07 18:00N 25°35' W 079°59'510.5
2017-Oct-07 17:30N 25°31' W 079°57'612.6
2017-Oct-07 17:00N 25°25' W 079°54'  
Track history (hours):
 
Tides and Currents Weather Stations Pressure Air Temp Water Temp Dewpoint Dewpoint Depression Visibility Wind Speed Wind Dir Waves Ship Positions

Habib Express

Last reported at 2017-Oct-15 14:47 UTC. Time now 2017-Oct-19 13:04 UTC.
Position N 25°21' W 079°51'.

Length 90 m; draft 4.5 m.

Type: Cargo ship. MMSI: 677027900.

Date/timePositionNaut miles runAvg speedWind from/ knotsBaromVisibWave heightAir tempDewpointWater temp
2017-Oct-15 14:47N 25°21' W 079°51'6 7.8
2017-Oct-15 13:59N 25°27' W 079°54'4 7.7
2017-Oct-15 13:30N 25°30' W 079°56'4 8.1
2017-Oct-15 13:00N 25°34' W 079°58'4 8.3
2017-Oct-15 12:30N 25°38' W 079°60'4 8.6
2017-Oct-15 12:00N 25°41' W 080°02'510.6
2017-Oct-15 11:30N 25°46' W 080°05'4 8.3
2017-Oct-15 11:00N 25°46' W 080°09'2 3.2
2017-Oct-15 10:30N 25°46' W 080°11'1 2.3
2017-Oct-15 09:59N 25°47' W 080°12'1 2.6
2017-Oct-15 09:29N 25°47' W 080°14'1 2.3
2017-Oct-15 08:59N 25°48' W 080°15'0 0.0
2017-Oct-15 08:29N 25°48' W 080°15'0 0.0
2017-Oct-15 07:59N 25°48' W 080°15'0 0.0
2017-Oct-15 07:29N 25°48' W 080°15'0 0.0
2017-Oct-15 06:59N 25°48' W 080°15'0 0.0
2017-Oct-15 06:26N 25°48' W 080°15'0 0.0
2017-Oct-15 05:59N 25°48' W 080°15'0 0.0
2017-Oct-15 05:29N 25°48' W 080°15'0 0.0
2017-Oct-15 04:53N 25°48' W 080°15'0 0.0
2017-Oct-15 04:23N 25°48' W 080°15'0 0.0
2017-Oct-15 03:59N 25°48' W 080°15'0 0.0
2017-Oct-15 03:26N 25°48' W 080°15'0 0.0
2017-Oct-15 02:47N 25°48' W 080°15'0 0.0
2017-Oct-15 02:20N 25°48' W 080°15'0 0.0
2017-Oct-14 18:18N 25°48' W 080°15'0 0.7
2017-Oct-14 17:59N 25°48' W 080°15'1 2.6
2017-Oct-14 17:30N 25°47' W 080°13'1 2.9
2017-Oct-14 17:00N 25°46' W 080°12'1 2.7
2017-Oct-14 16:30N 25°46' W 080°10'4 7.7
2017-Oct-14 16:00N 25°46' W 080°06'3 5.5
2017-Oct-14 15:30N 25°48' W 080°05'0 0.4
2017-Oct-14 15:00N 25°48' W 080°05'1 2.2
2017-Oct-14 14:30N 25°47' W 080°05'1 2.6
2017-Oct-14 14:00N 25°45' W 080°05'1 1.4
2017-Oct-14 13:30N 25°45' W 080°04'1 1.3
2017-Oct-14 13:00N 25°44' W 080°04'1 1.5
2017-Oct-14 12:30N 25°44' W 080°03'1 1.8
2017-Oct-14 12:00N 25°43' W 080°03'1 2.2
2017-Oct-14 11:30N 25°42' W 080°02'2 4.2
2017-Oct-14 11:00N 25°40' W 080°02'5 9.3
2017-Oct-14 10:30N 25°36' W 080°00'5 9.4
2017-Oct-14 10:00N 25°31' W 079°58'510.8
2017-Oct-14 09:30N 25°26' W 079°56'  
2017-Oct-08 23:28N 24°51' W 079°34'510.2
2017-Oct-08 23:00N 24°56' W 079°36'28 9.5
2017-Oct-08 20:07N 25°20' W 079°50'2 9.2
2017-Oct-08 19:51N 25°22' W 079°52'3 9.3
2017-Oct-08 19:30N 25°25' W 079°53'5 9.5
2017-Oct-08 19:00N 25°29' W 079°55'5 9.7
2017-Oct-08 18:30N 25°34' W 079°58'5 9.5
2017-Oct-08 17:59N 25°38' W 080°00'5 9.5
2017-Oct-08 17:30N 25°42' W 080°02'5 8.6
2017-Oct-08 16:57N 25°46' W 080°06'4 9.3
2017-Oct-08 16:30N 25°46' W 080°10'1 2.8
2017-Oct-08 16:00N 25°46' W 080°12'1 2.7
2017-Oct-08 15:30N 25°47' W 080°13'1 2.8
2017-Oct-08 15:01N 25°48' W 080°14'1 1.0
2017-Oct-08 14:29N 25°48' W 080°15'0 0.0
2017-Oct-08 13:59N 25°48' W 080°15'0 0.0
2017-Oct-08 13:25N 25°48' W 080°15'0 0.0
2017-Oct-08 12:55N 25°48' W 080°15'0 0.0
2017-Oct-08 12:25N 25°48' W 080°15'0 0.0
2017-Oct-08 11:55N 25°48' W 080°15'0 0.0
2017-Oct-08 11:25N 25°48' W 080°15'0 0.0
2017-Oct-08 10:55N 25°48' W 080°15'0 0.0
2017-Oct-08 10:25N 25°48' W 080°15'0 0.0
2017-Oct-08 09:58N 25°48' W 080°15'0 0.0
2017-Oct-08 09:25N 25°48' W 080°15'0 0.0
2017-Oct-08 08:55N 25°48' W 080°15'0 0.0
2017-Oct-08 08:28N 25°48' W 080°15'0 0.0
2017-Oct-08 07:59N 25°48' W 080°15'0 0.0
2017-Oct-08 07:31N 25°48' W 080°15'0 0.0
2017-Oct-08 07:00N 25°48' W 080°15'0 0.0
2017-Oct-08 06:30N 25°48' W 080°15'0 0.0
2017-Oct-08 06:01N 25°48' W 080°15'0 0.0
2017-Oct-08 05:30N 25°48' W 080°15'0 0.0
2017-Oct-08 05:01N 25°48' W 080°15'0 0.0
2017-Oct-08 04:31N 25°48' W 080°15'0 0.0
2017-Oct-08 03:59N 25°48' W 080°15'0 0.0
2017-Oct-08 03:30N 25°48' W 080°15'0 0.0
2017-Oct-08 02:59N 25°48' W 080°15'0 0.0
2017-Oct-08 02:30N 25°48' W 080°15'0 0.0
2017-Oct-08 01:59N 25°48' W 080°15'0 0.0
2017-Oct-08 01:30N 25°48' W 080°15'0 0.0
2017-Oct-08 00:58N 25°48' W 080°15'0 0.0
2017-Oct-08 00:27N 25°48' W 080°15'1 2.1
2017-Oct-07 23:58N 25°47' W 080°14'1 2.9
2017-Oct-07 23:29N 25°47' W 080°12'1 2.3
2017-Oct-07 23:00N 25°46' W 080°11'2 3.7
2017-Oct-07 22:30N 25°46' W 080°09'4 8.3
2017-Oct-07 22:01N 25°48' W 080°05'1 1.3
2017-Oct-07 21:31N 25°48' W 080°04'1 2.7
2017-Oct-07 20:58N 25°47' W 080°04'1 2.1
2017-Oct-07 20:28N 25°45' W 080°04'1 1.9
2017-Oct-07 19:58N 25°45' W 080°04'1 1.8
2017-Oct-07 19:28N 25°44' W 080°04'2 3.3
2017-Oct-07 19:00N 25°42' W 080°03'3 6.7
2017-Oct-07 18:30N 25°39' W 080°01'4 8.4
2017-Oct-07 18:00N 25°35' W 079°59'510.5
2017-Oct-07 17:30N 25°31' W 079°57'612.6
2017-Oct-07 17:00N 25°25' W 079°54'  

Dump ship's entire track history